sensor_id;sensor_type;location;lat;lon;timestamp;pressure;altitude;pressure_sealevel;temperature;humidity
72636;BME280;60679;48.888;15.544;2022-11-09T00:01:17;96254.22;;;5.86;76.88
72636;BME280;60679;48.888;15.544;2022-11-09T00:03:43;96252.16;;;5.88;76.83
72636;BME280;60679;48.888;15.544;2022-11-09T00:06:08;96248.66;;;5.88;76.83
72636;BME280;60679;48.888;15.544;2022-11-09T00:08:37;96255.28;;;5.92;76.84
72636;BME280;60679;48.888;15.544;2022-11-09T00:11:05;96257.97;;;5.92;76.96
72636;BME280;60679;48.888;15.544;2022-11-09T00:13:30;96254.28;;;5.93;77.07
72636;BME280;60679;48.888;15.544;2022-11-09T00:15:59;96250.53;;;5.94;76.99
72636;BME280;60679;48.888;15.544;2022-11-09T00:18:26;96257.75;;;5.93;77.01
72636;BME280;60679;48.888;15.544;2022-11-09T00:20:52;96254.06;;;5.94;77.43
72636;BME280;60679;48.888;15.544;2022-11-09T00:23:17;96255.06;;;5.93;76.89
72636;BME280;60679;48.888;15.544;2022-11-09T00:25:42;96242.72;;;5.92;77.10
72636;BME280;60679;48.888;15.544;2022-11-09T00:28:08;96246.03;;;5.94;77.14
72636;BME280;60679;48.888;15.544;2022-11-09T00:30:33;96245.00;;;5.95;77.29
72636;BME280;60679;48.888;15.544;2022-11-09T00:32:58;96234.47;;;5.94;77.32
72636;BME280;60679;48.888;15.544;2022-11-09T00:35:24;96239.66;;;5.95;77.36
72636;BME280;60679;48.888;15.544;2022-11-09T00:37:50;96238.59;;;5.96;77.73
72636;BME280;60679;48.888;15.544;2022-11-09T00:40:15;96240.44;;;5.96;77.35
72636;BME280;60679;48.888;15.544;2022-11-09T00:42:40;96242.34;;;5.95;77.44
72636;BME280;60679;48.888;15.544;2022-11-09T00:45:06;96238.38;;;5.91;77.17
72636;BME280;60679;48.888;15.544;2022-11-09T00:47:32;96239.38;;;5.90;77.39
72636;BME280;60679;48.888;15.544;2022-11-09T00:49:57;96232.38;;;5.89;77.63
72636;BME280;60679;48.888;15.544;2022-11-09T00:52:22;96233.22;;;5.90;77.52
72636;BME280;60679;48.888;15.544;2022-11-09T00:54:48;96234.84;;;5.91;77.62
72636;BME280;60679;48.888;15.544;2022-11-09T00:57:13;96233.63;;;5.93;77.55
72636;BME280;60679;48.888;15.544;2022-11-09T00:59:39;96235.09;;;5.96;77.45
72636;BME280;60679;48.888;15.544;2022-11-09T01:02:04;96245.00;;;5.95;77.87
72636;BME280;60679;48.888;15.544;2022-11-09T01:04:30;96247.88;;;5.94;77.73
72636;BME280;60679;48.888;15.544;2022-11-09T01:06:55;96248.06;;;5.92;77.69
72636;BME280;60679;48.888;15.544;2022-11-09T01:09:20;96252.78;;;5.90;77.71
72636;BME280;60679;48.888;15.544;2022-11-09T01:11:46;96243.94;;;5.90;77.91
72636;BME280;60679;48.888;15.544;2022-11-09T01:14:11;96246.63;;;5.90;78.16
72636;BME280;60679;48.888;15.544;2022-11-09T01:16:37;96248.47;;;5.89;78.00
72636;BME280;60679;48.888;15.544;2022-11-09T01:19:03;96243.09;;;5.89;77.80
72636;BME280;60679;48.888;15.544;2022-11-09T01:21:28;96245.56;;;5.91;77.94
72636;BME280;60679;48.888;15.544;2022-11-09T01:23:55;96238.38;;;5.91;77.79
72636;BME280;60679;48.888;15.544;2022-11-09T01:26:22;96230.34;;;5.91;77.92
72636;BME280;60679;48.888;15.544;2022-11-09T01:28:47;96234.69;;;5.92;77.90
72636;BME280;60679;48.888;15.544;2022-11-09T01:31:16;96229.31;;;5.92;78.08
72636;BME280;60679;48.888;15.544;2022-11-09T01:33:42;96226.63;;;5.92;78.12
72636;BME280;60679;48.888;15.544;2022-11-09T01:36:10;96230.34;;;5.91;78.09
72636;BME280;60679;48.888;15.544;2022-11-09T01:38:37;96234.84;;;5.91;78.24
72636;BME280;60679;48.888;15.544;2022-11-09T01:41:04;96238.59;;;5.90;78.00
72636;BME280;60679;48.888;15.544;2022-11-09T01:43:30;96230.72;;;5.88;78.34
72636;BME280;60679;48.888;15.544;2022-11-09T01:48:51;96234.22;;;5.89;78.33
72636;BME280;60679;48.888;15.544;2022-11-09T01:51:26;96234.03;;;5.90;78.41
72636;BME280;60679;48.888;15.544;2022-11-09T01:53:57;96231.16;;;5.92;78.31
72636;BME280;60679;48.888;15.544;2022-11-09T01:56:25;96242.06;;;5.90;78.35
72636;BME280;60679;48.888;15.544;2022-11-09T01:58:54;96233.41;;;5.88;78.36
72636;BME280;60679;48.888;15.544;2022-11-09T02:01:20;96225.56;;;5.87;78.32
72636;BME280;60679;48.888;15.544;2022-11-09T02:04:07;96224.25;;;5.82;78.45
72636;BME280;60679;48.888;15.544;2022-11-09T02:06:34;96225.28;;;5.81;78.48
72636;BME280;60679;48.888;15.544;2022-11-09T02:09:07;96225.28;;;5.81;78.32
72636;BME280;60679;48.888;15.544;2022-11-09T02:11:35;96226.94;;;5.82;78.61
72636;BME280;60679;48.888;15.544;2022-11-09T02:14:03;96230.63;;;5.81;78.65
72636;BME280;60679;48.888;15.544;2022-11-09T02:16:30;96222.41;;;5.83;78.54
72636;BME280;60679;48.888;15.544;2022-11-09T02:18:57;96223.44;;;5.82;78.85
72636;BME280;60679;48.888;15.544;2022-11-09T02:21:26;96217.22;;;5.81;78.82
72636;BME280;60679;48.888;15.544;2022-11-09T02:23:52;96215.59;;;5.80;78.45
72636;BME280;60679;48.888;15.544;2022-11-09T02:26:48;96210.03;;;5.82;78.76
72636;BME280;60679;48.888;15.544;2022-11-09T02:29:17;96209.03;;;5.83;78.82
72636;BME280;60679;48.888;15.544;2022-11-09T02:31:51;96203.66;;;5.83;78.82
72636;BME280;60679;48.888;15.544;2022-11-09T02:34:19;96209.84;;;5.83;78.83
72636;BME280;60679;48.888;15.544;2022-11-09T02:36:45;96217.22;;;5.81;78.90
72636;BME280;60679;48.888;15.544;2022-11-09T02:39:12;96207.56;;;5.80;78.90
72636;BME280;60679;48.888;15.544;2022-11-09T02:41:46;96212.28;;;5.78;78.78
72636;BME280;60679;48.888;15.544;2022-11-09T02:44:14;96216.00;;;5.77;78.83
72636;BME280;60679;48.888;15.544;2022-11-09T02:46:40;96219.88;;;5.75;78.90
72636;BME280;60679;48.888;15.544;2022-11-09T02:49:06;96223.56;;;5.74;79.16
72636;BME280;60679;48.888;15.544;2022-11-09T02:51:31;96225.19;;;5.68;78.92
72636;BME280;60679;48.888;15.544;2022-11-09T02:53:57;96216.69;;;5.65;78.93
72636;BME280;60679;48.888;15.544;2022-11-09T02:56:22;96224.75;;;5.65;79.06
72636;BME280;60679;48.888;15.544;2022-11-09T02:58:48;96228.47;;;5.64;79.05
72636;BME280;60679;48.888;15.544;2022-11-09T03:01:13;96220.22;;;5.65;79.11
72636;BME280;60679;48.888;15.544;2022-11-09T03:03:39;96216.06;;;5.63;79.30
72636;BME280;60679;48.888;15.544;2022-11-09T03:06:04;96217.09;;;5.62;79.09
72636;BME280;60679;48.888;15.544;2022-11-09T03:08:29;96210.94;;;5.61;79.22
72636;BME280;60679;48.888;15.544;2022-11-09T03:10:55;96214.63;;;5.60;79.43
72636;BME280;60679;48.888;15.544;2022-11-09T03:13:23;96212.31;;;5.57;79.16
72636;BME280;60679;48.888;15.544;2022-11-09T03:15:48;96219.53;;;5.57;79.43
72636;BME280;60679;48.888;15.544;2022-11-09T03:18:13;96226.56;;;5.58;79.08
72636;BME280;60679;48.888;15.544;2022-11-09T03:20:39;96214.16;;;5.57;79.55
72636;BME280;60679;48.888;15.544;2022-11-09T03:23:04;96212.31;;;5.57;79.46
72636;BME280;60679;48.888;15.544;2022-11-09T03:25:29;96218.50;;;5.58;79.34
72636;BME280;60679;48.888;15.544;2022-11-09T03:28:03;96212.13;;;5.59;79.46
72636;BME280;60679;48.888;15.544;2022-11-09T03:30:30;96211.50;;;5.57;79.37
72636;BME280;60679;48.888;15.544;2022-11-09T03:33:04;96215.22;;;5.56;79.47
72636;BME280;60679;48.888;15.544;2022-11-09T03:35:36;96226.72;;;5.56;79.39
72636;BME280;60679;48.888;15.544;2022-11-09T03:38:03;96227.78;;;5.55;79.51
72636;BME280;60679;48.888;15.544;2022-11-09T03:40:29;96234.97;;;5.55;79.52
72636;BME280;60679;48.888;15.544;2022-11-09T03:42:55;96226.09;;;5.54;79.48
72636;BME280;60679;48.888;15.544;2022-11-09T03:45:20;96228.78;;;5.54;79.56
72636;BME280;60679;48.888;15.544;2022-11-09T03:47:46;96223.44;;;5.54;79.62
72636;BME280;60679;48.888;15.544;2022-11-09T03:50:13;96217.22;;;5.54;79.62
72636;BME280;60679;48.888;15.544;2022-11-09T03:52:39;96216.59;;;5.52;79.55
72636;BME280;60679;48.888;15.544;2022-11-09T03:55:05;96217.19;;;5.47;79.61
72636;BME280;60679;48.888;15.544;2022-11-09T03:57:31;96219.22;;;5.45;79.70
72636;BME280;60679;48.888;15.544;2022-11-09T03:59:56;96224.16;;;5.42;79.66
72636;BME280;60679;48.888;15.544;2022-11-09T04:02:22;96219.81;;;5.41;79.75
72636;BME280;60679;48.888;15.544;2022-11-09T04:04:47;96225.34;;;5.39;79.73
72636;BME280;60679;48.888;15.544;2022-11-09T04:07:13;96220.00;;;5.39;79.49
72636;BME280;60679;48.888;15.544;2022-11-09T04:09:38;96213.44;;;5.42;79.91
72636;BME280;60679;48.888;15.544;2022-11-09T04:12:04;96205.41;;;5.42;79.79
72636;BME280;60679;48.888;15.544;2022-11-09T04:14:29;96208.72;;;5.44;79.91
72636;BME280;60679;48.888;15.544;2022-11-09T04:16:55;96209.56;;;5.44;79.94
72636;BME280;60679;48.888;15.544;2022-11-09T04:19:20;96204.81;;;5.46;80.07
72636;BME280;60679;48.888;15.544;2022-11-09T04:21:46;96205.44;;;5.48;79.84
72636;BME280;60679;48.888;15.544;2022-11-09T04:24:11;96209.59;;;5.51;80.08
72636;BME280;60679;48.888;15.544;2022-11-09T04:26:36;96212.09;;;5.52;80.02
72636;BME280;60679;48.888;15.544;2022-11-09T04:29:02;96212.91;;;5.53;80.20
72636;BME280;60679;48.888;15.544;2022-11-09T04:31:27;96205.50;;;5.55;80.11
72636;BME280;60679;48.888;15.544;2022-11-09T04:33:53;96212.53;;;5.56;80.10
72636;BME280;60679;48.888;15.544;2022-11-09T04:36:18;96208.63;;;5.58;80.14
72636;BME280;60679;48.888;15.544;2022-11-09T04:38:44;96211.09;;;5.60;80.05
72636;BME280;60679;48.888;15.544;2022-11-09T04:41:09;96215.44;;;5.61;80.32
72636;BME280;60679;48.888;15.544;2022-11-09T04:43:34;96214.41;;;5.62;80.25
72636;BME280;60679;48.888;15.544;2022-11-09T04:46:03;96208.88;;;5.63;80.24
72636;BME280;60679;48.888;15.544;2022-11-09T04:48:29;96214.84;;;5.65;80.31
72636;BME280;60679;48.888;15.544;2022-11-09T04:51:04;96212.00;;;5.67;80.30
72636;BME280;60679;48.888;15.544;2022-11-09T04:53:30;96208.28;;;5.68;79.99
72636;BME280;60679;48.888;15.544;2022-11-09T04:55:56;96209.75;;;5.70;80.13
72636;BME280;60679;48.888;15.544;2022-11-09T04:58:22;96214.28;;;5.70;80.31
72636;BME280;60679;48.888;15.544;2022-11-09T05:00:48;96211.19;;;5.73;80.51
72636;BME280;60679;48.888;15.544;2022-11-09T05:03:13;96215.53;;;5.74;80.22
72636;BME280;60679;48.888;15.544;2022-11-09T05:05:44;96212.03;;;5.73;80.49
72636;BME280;60679;48.888;15.544;2022-11-09T05:08:15;96218.44;;;5.72;80.43
72636;BME280;60679;48.888;15.544;2022-11-09T05:10:40;96207.50;;;5.74;80.46
72636;BME280;60679;48.888;15.544;2022-11-09T05:13:08;96204.66;;;5.75;80.52
72636;BME280;60679;48.888;15.544;2022-11-09T05:15:34;96204.44;;;5.77;80.52
72636;BME280;60679;48.888;15.544;2022-11-09T05:18:00;96199.28;;;5.75;80.42
72636;BME280;60679;48.888;15.544;2022-11-09T05:20:27;96197.63;;;5.74;80.50
72636;BME280;60679;48.888;15.544;2022-11-09T05:22:52;96203.81;;;5.75;80.62
72636;BME280;60679;48.888;15.544;2022-11-09T05:25:37;96197.41;;;5.76;80.64
72636;BME280;60679;48.888;15.544;2022-11-09T05:28:03;96196.63;;;5.75;80.66
72636;BME280;60679;48.888;15.544;2022-11-09T05:30:29;96194.13;;;5.74;80.61
72636;BME280;60679;48.888;15.544;2022-11-09T05:32:54;96189.38;;;5.76;80.67
72636;BME280;60679;48.888;15.544;2022-11-09T05:35:20;96189.19;;;5.77;80.61
72636;BME280;60679;48.888;15.544;2022-11-09T05:37:46;96189.00;;;5.79;80.64
72636;BME280;60679;48.888;15.544;2022-11-09T05:40:13;96182.63;;;5.80;80.69
72636;BME280;60679;48.888;15.544;2022-11-09T05:42:39;96183.63;;;5.79;80.86
72636;BME280;60679;48.888;15.544;2022-11-09T05:45:09;96190.66;;;5.80;80.63
72636;BME280;60679;48.888;15.544;2022-11-09T05:47:39;96191.50;;;5.80;81.09
72636;BME280;60679;48.888;15.544;2022-11-09T05:50:06;96197.69;;;5.81;80.95
72636;BME280;60679;48.888;15.544;2022-11-09T05:52:32;96196.84;;;5.80;80.86
72636;BME280;60679;48.888;15.544;2022-11-09T05:54:58;96201.16;;;5.81;80.88
72636;BME280;60679;48.888;15.544;2022-11-09T05:57:25;96200.16;;;5.82;80.75
72636;BME280;60679;48.888;15.544;2022-11-09T05:59:50;96197.47;;;5.82;80.73
72636;BME280;60679;48.888;15.544;2022-11-09T06:02:15;96199.31;;;5.82;80.90
72636;BME280;60679;48.888;15.544;2022-11-09T06:04:41;96201.16;;;5.81;80.93
72636;BME280;60679;48.888;15.544;2022-11-09T06:07:06;96203.66;;;5.83;80.78
72636;BME280;60679;48.888;15.544;2022-11-09T06:09:31;96210.69;;;5.84;80.90
72636;BME280;60679;48.888;15.544;2022-11-09T06:11:57;96211.50;;;5.84;81.10
72636;BME280;60679;48.888;15.544;2022-11-09T06:14:22;96214.66;;;5.88;81.05
72636;BME280;60679;48.888;15.544;2022-11-09T06:16:47;96218.16;;;5.89;80.90
72636;BME280;60679;48.888;15.544;2022-11-09T06:19:13;96216.31;;;5.89;80.97
72636;BME280;60679;48.888;15.544;2022-11-09T06:21:41;96217.78;;;5.92;80.95
72636;BME280;60679;48.888;15.544;2022-11-09T06:24:06;96212.19;;;5.93;81.20
72636;BME280;60679;48.888;15.544;2022-11-09T06:26:32;96208.28;;;5.96;81.14
72636;BME280;60679;48.888;15.544;2022-11-09T06:28:57;96213.47;;;5.97;80.90
72636;BME280;60679;48.888;15.544;2022-11-09T06:31:23;96223.19;;;5.98;81.19
72636;BME280;60679;48.888;15.544;2022-11-09T06:33:48;96223.81;;;6.00;81.19
72636;BME280;60679;48.888;15.544;2022-11-09T06:36:13;96232.69;;;6.01;81.09
72636;BME280;60679;48.888;15.544;2022-11-09T06:38:39;96232.28;;;6.04;80.96
72636;BME280;60679;48.888;15.544;2022-11-09T06:41:05;96225.88;;;6.05;81.20
72636;BME280;60679;48.888;15.544;2022-11-09T06:43:30;96224.88;;;6.06;80.92
72636;BME280;60679;48.888;15.544;2022-11-09T06:45:56;96225.50;;;6.08;81.13
72636;BME280;60679;48.888;15.544;2022-11-09T06:48:22;96223.44;;;6.10;80.97
72636;BME280;60679;48.888;15.544;2022-11-09T06:50:48;96225.31;;;6.09;81.15
72636;BME280;60679;48.888;15.544;2022-11-09T06:53:14;96232.31;;;6.10;81.02
72636;BME280;60679;48.888;15.544;2022-11-09T06:55:40;96227.59;;;6.12;81.18
72636;BME280;60679;48.888;15.544;2022-11-09T06:58:08;96239.13;;;6.13;81.13
72636;BME280;60679;48.888;15.544;2022-11-09T07:00:34;96233.75;;;6.13;81.02
72636;BME280;60679;48.888;15.544;2022-11-09T07:03:00;96239.97;;;6.13;81.16
72636;BME280;60679;48.888;15.544;2022-11-09T07:05:25;96232.53;;;6.15;81.14
72636;BME280;60679;48.888;15.544;2022-11-09T07:07:51;96242.06;;;6.18;80.99
72636;BME280;60679;48.888;15.544;2022-11-09T07:10:16;96240.84;;;6.20;81.07
72636;BME280;60679;48.888;15.544;2022-11-09T07:12:42;96250.53;;;6.21;81.07
72636;BME280;60679;48.888;15.544;2022-11-09T07:15:08;96250.53;;;6.21;80.86
72636;BME280;60679;48.888;15.544;2022-11-09T07:17:34;96255.69;;;6.23;81.07
72636;BME280;60679;48.888;15.544;2022-11-09T07:20:02;96260.69;;;6.26;81.11
72636;BME280;60679;48.888;15.544;2022-11-09T07:22:28;96256.94;;;6.27;81.01
72636;BME280;60679;48.888;15.544;2022-11-09T07:24:54;96250.34;;;6.29;80.78
72636;BME280;60679;48.888;15.544;2022-11-09T07:27:20;96253.03;;;6.29;81.05
72636;BME280;60679;48.888;15.544;2022-11-09T07:29:46;96252.63;;;6.26;81.06
72636;BME280;60679;48.888;15.544;2022-11-09T07:32:11;96257.16;;;6.25;80.83
72636;BME280;60679;48.888;15.544;2022-11-09T07:34:36;96244.38;;;6.27;81.17
72636;BME280;60679;48.888;15.544;2022-11-09T07:37:02;96238.44;;;6.32;81.14
72636;BME280;60679;48.888;15.544;2022-11-09T07:39:27;96231.84;;;6.34;81.01
72636;BME280;60679;48.888;15.544;2022-11-09T07:41:52;96239.91;;;6.34;81.01
72636;BME280;60679;48.888;15.544;2022-11-09T07:44:19;96253.72;;;6.38;81.01
72636;BME280;60679;48.888;15.544;2022-11-09T07:46:48;96258.91;;;6.39;80.86
72636;BME280;60679;48.888;15.544;2022-11-09T07:49:15;96257.88;;;6.41;81.07
72636;BME280;60679;48.888;15.544;2022-11-09T07:51:41;96252.31;;;6.42;81.08
72636;BME280;60679;48.888;15.544;2022-11-09T07:54:06;96256.88;;;6.48;80.84
72636;BME280;60679;48.888;15.544;2022-11-09T07:56:32;96275.66;;;6.48;80.91
72636;BME280;60679;48.888;15.544;2022-11-09T07:58:58;96284.94;;;6.46;81.21
72636;BME280;60679;48.888;15.544;2022-11-09T08:01:23;96281.41;;;6.45;80.91
72636;BME280;60679;48.888;15.544;2022-11-09T08:03:48;96284.09;;;6.45;81.19
72636;BME280;60679;48.888;15.544;2022-11-09T08:06:14;96281.84;;;6.49;80.81
72636;BME280;60679;48.888;15.544;2022-11-09T08:08:39;96277.72;;;6.53;80.93
72636;BME280;60679;48.888;15.544;2022-11-09T08:11:05;96274.03;;;6.54;80.88
72636;BME280;60679;48.888;15.544;2022-11-09T08:13:30;96277.53;;;6.54;80.99
72636;BME280;60679;48.888;15.544;2022-11-09T08:15:56;96268.28;;;6.57;80.92
72636;BME280;60679;48.888;15.544;2022-11-09T08:18:22;96274.69;;;6.62;80.91
72636;BME280;60679;48.888;15.544;2022-11-09T08:20:48;96271.63;;;6.65;80.74
72636;BME280;60679;48.888;15.544;2022-11-09T08:23:15;96276.38;;;6.70;80.85
72636;BME280;60679;48.888;15.544;2022-11-09T08:25:41;96282.34;;;6.72;80.54
72636;BME280;60679;48.888;15.544;2022-11-09T08:28:07;96286.91;;;6.71;80.53
72636;BME280;60679;48.888;15.544;2022-11-09T08:30:33;96278.66;;;6.73;80.79
72636;BME280;60679;48.888;15.544;2022-11-09T08:32:59;96280.94;;;6.76;80.61
72636;BME280;60679;48.888;15.544;2022-11-09T08:35:26;96287.38;;;6.81;80.68
72636;BME280;60679;48.888;15.544;2022-11-09T08:37:52;96280.59;;;6.85;80.60
72636;BME280;60679;48.888;15.544;2022-11-09T08:40:22;96281.81;;;6.89;80.66
72636;BME280;60679;48.888;15.544;2022-11-09T08:42:49;96278.75;;;6.92;80.40
72636;BME280;60679;48.888;15.544;2022-11-09T08:45:15;96274.25;;;7.00;80.31
72636;BME280;60679;48.888;15.544;2022-11-09T08:47:41;96268.47;;;7.03;80.11
72636;BME280;60679;48.888;15.544;2022-11-09T08:50:07;96275.69;;;7.09;80.06
72636;BME280;60679;48.888;15.544;2022-11-09T08:52:34;96266.00;;;7.08;80.08
72636;BME280;60679;48.888;15.544;2022-11-09T08:54:59;96273.25;;;7.14;80.12
72636;BME280;60679;48.888;15.544;2022-11-09T08:57:25;96271.81;;;7.18;80.10
72636;BME280;60679;48.888;15.544;2022-11-09T08:59:51;96266.03;;;7.21;79.90
72636;BME280;60679;48.888;15.544;2022-11-09T09:02:16;96275.97;;;7.27;79.96
72636;BME280;60679;48.888;15.544;2022-11-09T09:04:43;96274.09;;;7.34;79.62
72636;BME280;60679;48.888;15.544;2022-11-09T09:07:09;96276.59;;;7.35;79.78
72636;BME280;60679;48.888;15.544;2022-11-09T09:09:34;96274.09;;;7.34;79.95
72636;BME280;60679;48.888;15.544;2022-11-09T09:12:02;96264.00;;;7.36;79.87
72636;BME280;60679;48.888;15.544;2022-11-09T09:14:27;96260.50;;;7.35;79.76
72636;BME280;60679;48.888;15.544;2022-11-09T09:16:53;96265.66;;;7.37;79.93
72636;BME280;60679;48.888;15.544;2022-11-09T09:19:18;96275.19;;;7.39;79.84
72636;BME280;60679;48.888;15.544;2022-11-09T09:21:44;96282.59;;;7.37;79.71
72636;BME280;60679;48.888;15.544;2022-11-09T09:24:09;96280.56;;;7.39;79.81
72636;BME280;60679;48.888;15.544;2022-11-09T09:26:35;96281.16;;;7.41;79.77
72636;BME280;60679;48.888;15.544;2022-11-09T09:29:00;96276.22;;;7.45;79.77
72636;BME280;60679;48.888;15.544;2022-11-09T09:31:25;96297.72;;;7.45;79.59
72636;BME280;60679;48.888;15.544;2022-11-09T09:33:51;96296.88;;;7.44;79.72
72636;BME280;60679;48.888;15.544;2022-11-09T09:36:22;96301.22;;;7.52;79.70
72636;BME280;60679;48.888;15.544;2022-11-09T09:38:51;96308.44;;;7.51;79.47
72636;BME280;60679;48.888;15.544;2022-11-09T09:49:54;96292.34;;;7.58;79.64
72636;BME280;60679;48.888;15.544;2022-11-09T09:55:18;96276.69;;;7.81;79.27
72636;BME280;60679;48.888;15.544;2022-11-09T09:57:51;96273.34;;;7.79;79.20
72636;BME280;60679;48.888;15.544;2022-11-09T10:00:22;96273.34;;;7.79;79.27
72636;BME280;60679;48.888;15.544;2022-11-09T10:02:50;96281.00;;;7.76;79.62
72636;BME280;60679;48.888;15.544;2022-11-09T10:05:16;96286.38;;;7.89;79.08
72636;BME280;60679;48.888;15.544;2022-11-09T10:08:09;96296.31;;;7.95;79.15
72636;BME280;60679;48.888;15.544;2022-11-09T10:11:07;96303.75;;;7.99;79.04
72636;BME280;60679;48.888;15.544;2022-11-09T10:19:19;96303.53;;;7.88;79.40
72636;BME280;60679;48.888;15.544;2022-11-09T10:22:14;96302.94;;;7.92;79.36
72636;BME280;60679;48.888;15.544;2022-11-09T10:24:53;96311.63;;;7.94;79.28
72636;BME280;60679;48.888;15.544;2022-11-09T10:27:34;96302.94;;;7.92;79.34
72636;BME280;60679;48.888;15.544;2022-11-09T10:30:04;96309.94;;;7.93;79.51
72636;BME280;60679;48.888;15.544;2022-11-09T10:32:31;96310.38;;;8.03;79.19
72636;BME280;60679;48.888;15.544;2022-11-09T10:35:18;96312.66;;;8.06;79.18
72636;BME280;60679;48.888;15.544;2022-11-09T10:37:47;96301.28;;;8.18;78.84
72636;BME280;60679;48.888;15.544;2022-11-09T10:42:52;96302.91;;;8.19;79.10
72636;BME280;60679;48.888;15.544;2022-11-09T10:45:30;96289.28;;;8.20;79.36
72636;BME280;60679;48.888;15.544;2022-11-09T10:47:56;96293.44;;;8.29;78.95
72636;BME280;60679;48.888;15.544;2022-11-09T10:55:55;96294.66;;;8.33;78.50
72636;BME280;60679;48.888;15.544;2022-11-09T10:58:26;96291.59;;;8.30;78.67
72636;BME280;60679;48.888;15.544;2022-11-09T11:01:12;96280.78;;;8.23;79.05
72636;BME280;60679;48.888;15.544;2022-11-09T11:03:40;96285.16;;;8.18;79.36
72636;BME280;60679;48.888;15.544;2022-11-09T11:08:51;96282.44;;;8.18;79.18
72636;BME280;60679;48.888;15.544;2022-11-09T11:11:30;96284.94;;;8.12;79.52
72636;BME280;60679;48.888;15.544;2022-11-09T11:16:44;96277.69;;;8.13;79.34
72636;BME280;60679;48.888;15.544;2022-11-09T11:19:38;96277.06;;;8.11;79.50
72636;BME280;60679;48.888;15.544;2022-11-09T11:32:28;96287.63;;;8.52;78.99
72636;BME280;60679;48.888;15.544;2022-11-09T11:34:53;96282.03;;;8.40;78.94
72636;BME280;60679;48.888;15.544;2022-11-09T11:45:35;96270.63;;;8.58;78.64
72636;BME280;60679;48.888;15.544;2022-11-09T11:48:48;96265.97;;;8.78;78.25
72636;BME280;60679;48.888;15.544;2022-11-09T11:54:05;96271.59;;;8.83;78.67
72636;BME280;60679;48.888;15.544;2022-11-09T11:56:39;96269.69;;;8.90;78.41
72636;BME280;60679;48.888;15.544;2022-11-09T12:12:41;96262.00;;;9.00;78.19
72636;BME280;60679;48.888;15.544;2022-11-09T12:15:30;96276.88;;;9.03;78.24
72636;BME280;60679;48.888;15.544;2022-11-09T12:21:11;96258.84;;;9.03;78.10
72636;BME280;60679;48.888;15.544;2022-11-09T12:26:43;96261.63;;;8.84;78.62
72636;BME280;60679;48.888;15.544;2022-11-09T12:29:38;96247.31;;;8.90;78.48
72636;BME280;60679;48.888;15.544;2022-11-09T12:32:16;96245.34;;;9.10;78.14
72636;BME280;60679;48.888;15.544;2022-11-09T12:34:53;96249.28;;;9.14;77.97
72636;BME280;60679;48.888;15.544;2022-11-09T12:37:46;96242.47;;;9.11;78.39
72636;BME280;60679;48.888;15.544;2022-11-09T12:42:46;96242.69;;;9.03;78.58
72636;BME280;60679;48.888;15.544;2022-11-09T12:47:43;96238.00;;;8.86;78.84
72636;BME280;60679;48.888;15.544;2022-11-09T12:50:15;96256.22;;;8.90;78.78
72636;BME280;60679;48.888;15.544;2022-11-09T12:52:43;96246.88;;;8.93;78.66
72636;BME280;60679;48.888;15.544;2022-11-09T12:55:20;96247.94;;;8.92;78.62
72636;BME280;60679;48.888;15.544;2022-11-09T12:57:48;96245.84;;;8.94;78.79
72636;BME280;60679;48.888;15.544;2022-11-09T13:03:18;96230.88;;;9.42;77.73
72636;BME280;60679;48.888;15.544;2022-11-09T13:05:44;96223.66;;;9.67;77.17
72636;BME280;60679;48.888;15.544;2022-11-09T13:08:26;96215.34;;;10.18;76.01
72636;BME280;60679;48.888;15.544;2022-11-09T13:11:17;96212.56;;;10.00;76.59
72636;BME280;60679;48.888;15.544;2022-11-09T13:13:44;96216.59;;;9.66;77.54
72636;BME280;60679;48.888;15.544;2022-11-09T13:23:48;96227.50;;;9.78;76.72
72636;BME280;60679;48.888;15.544;2022-11-09T13:34:48;96239.19;;;9.65;77.00
72636;BME280;60679;48.888;15.544;2022-11-09T13:39:58;96243.97;;;9.32;77.85
72636;BME280;60679;48.888;15.544;2022-11-09T13:42:31;96239.09;;;9.16;78.26
72636;BME280;60679;48.888;15.544;2022-11-09T13:45:27;96250.75;;;9.10;78.34
72636;BME280;60679;48.888;15.544;2022-11-09T13:47:53;96253.09;;;8.93;78.54
72636;BME280;60679;48.888;15.544;2022-11-09T13:50:22;96253.53;;;8.84;78.67
72636;BME280;60679;48.888;15.544;2022-11-09T13:52:51;96250.91;;;8.70;78.75
72636;BME280;60679;48.888;15.544;2022-11-09T13:57:48;96254.44;;;8.64;79.25
72636;BME280;60679;48.888;15.544;2022-11-09T14:00:19;96257.97;;;8.65;79.05
72636;BME280;60679;48.888;15.544;2022-11-09T14:02:58;96250.31;;;8.62;79.16
72636;BME280;60679;48.888;15.544;2022-11-09T14:05:30;96260.22;;;8.68;79.02
72636;BME280;60679;48.888;15.544;2022-11-09T14:07:59;96251.91;;;8.83;78.50
72636;BME280;60679;48.888;15.544;2022-11-09T14:13:16;96249.81;;;8.78;78.91
72636;BME280;60679;48.888;15.544;2022-11-09T14:15:50;96261.91;;;8.62;79.42
72636;BME280;60679;48.888;15.544;2022-11-09T14:19:46;96244.75;;;8.57;79.33
72636;BME280;60679;48.888;15.544;2022-11-09T14:21:47;96249.09;;;8.51;79.45
72636;BME280;60679;48.888;15.544;2022-11-09T14:24:23;96253.47;;;8.46;79.28
72636;BME280;60679;48.888;15.544;2022-11-09T14:29:33;96255.75;;;8.36;79.39
72636;BME280;60679;48.888;15.544;2022-11-09T14:32:46;96258.06;;;8.32;79.58
72636;BME280;60679;48.888;15.544;2022-11-09T14:34:45;96258.84;;;8.33;79.80
72636;BME280;60679;48.888;15.544;2022-11-09T14:37:12;96254.31;;;8.27;79.72
72636;BME280;60679;48.888;15.544;2022-11-09T14:39:38;96252.66;;;8.19;80.01
72636;BME280;60679;48.888;15.544;2022-11-09T14:42:05;96259.91;;;8.12;80.16
72636;BME280;60679;48.888;15.544;2022-11-09T14:44:35;96256.19;;;8.06;80.38
72636;BME280;60679;48.888;15.544;2022-11-09T14:47:05;96257.63;;;8.02;80.61
72636;BME280;60679;48.888;15.544;2022-11-09T14:49:31;96261.97;;;7.97;80.56
72636;BME280;60679;48.888;15.544;2022-11-09T14:51:57;96268.00;;;7.92;80.77
72636;BME280;60679;48.888;15.544;2022-11-09T14:54:24;96261.16;;;7.90;80.70
72636;BME280;60679;48.888;15.544;2022-11-09T14:56:52;96259.09;;;7.85;80.74